sensor_id;sensor_type;location;lat;lon;timestamp;P1;durP1;ratioP1;P2;durP2;ratioP2
81191;SDS011;70665;47.652;-2.730;2024-03-23T00:53:46;14.85;;;2.72;;
81191;SDS011;70665;47.652;-2.730;2024-03-23T00:56:12;14.27;;;2.20;;
81191;SDS011;70665;47.652;-2.730;2024-03-23T00:58:37;13.95;;;3.38;;
81191;SDS011;70665;47.652;-2.730;2024-03-23T01:01:03;18.83;;;2.53;;
81191;SDS011;70665;47.652;-2.730;2024-03-23T01:03:29;13.20;;;2.35;;
81191;SDS011;70665;47.652;-2.730;2024-03-23T01:08:28;14.05;;;3.03;;
81191;SDS011;70665;47.652;-2.730;2024-03-23T01:10:56;19.05;;;3.03;;
81191;SDS011;70665;47.652;-2.730;2024-03-23T01:13:22;23.77;;;3.88;;
81191;SDS011;70665;47.652;-2.730;2024-03-23T01:15:51;13.15;;;2.95;;
81191;SDS011;70665;47.652;-2.730;2024-03-23T01:18:18;14.48;;;3.92;;
81191;SDS011;70665;47.652;-2.730;2024-03-23T01:20:44;14.32;;;2.60;;
81191;SDS011;70665;47.652;-2.730;2024-03-23T01:23:10;9.45;;;2.40;;
81191;SDS011;70665;47.652;-2.730;2024-03-23T01:25:36;18.15;;;4.20;;
81191;SDS011;70665;47.652;-2.730;2024-03-23T01:28:02;10.45;;;2.88;;
81191;SDS011;70665;47.652;-2.730;2024-03-23T01:30:28;14.95;;;3.45;;
81191;SDS011;70665;47.652;-2.730;2024-03-23T01:32:55;15.43;;;2.50;;
81191;SDS011;70665;47.652;-2.730;2024-03-23T01:35:21;11.02;;;3.13;;
81191;SDS011;70665;47.652;-2.730;2024-03-23T01:37:46;12.75;;;2.50;;
81191;SDS011;70665;47.652;-2.730;2024-03-23T01:40:12;15.95;;;3.67;;
81191;SDS011;70665;47.652;-2.730;2024-03-23T01:42:40;12.88;;;2.55;;
81191;SDS011;70665;47.652;-2.730;2024-03-23T01:45:07;16.33;;;3.28;;
81191;SDS011;70665;47.652;-2.730;2024-03-23T01:47:34;11.52;;;2.70;;
81191;SDS011;70665;47.652;-2.730;2024-03-23T01:49:59;13.45;;;2.65;;
81191;SDS011;70665;47.652;-2.730;2024-03-23T01:52:26;12.93;;;3.13;;
81191;SDS011;70665;47.652;-2.730;2024-03-23T01:54:52;11.68;;;2.55;;
81191;SDS011;70665;47.652;-2.730;2024-03-23T01:57:18;18.30;;;2.47;;
81191;SDS011;70665;47.652;-2.730;2024-03-23T01:59:46;18.50;;;3.45;;
81191;SDS011;70665;47.652;-2.730;2024-03-23T02:02:12;12.88;;;2.58;;
81191;SDS011;70665;47.652;-2.730;2024-03-23T02:04:37;11.27;;;2.55;;
81191;SDS011;70665;47.652;-2.730;2024-03-23T02:07:03;14.88;;;2.60;;
81191;SDS011;70665;47.652;-2.730;2024-03-23T02:09:31;17.00;;;2.53;;
81191;SDS011;70665;47.652;-2.730;2024-03-23T02:11:57;16.98;;;2.83;;
81191;SDS011;70665;47.652;-2.730;2024-03-23T02:14:23;16.75;;;2.63;;
81191;SDS011;70665;47.652;-2.730;2024-03-23T02:16:48;14.60;;;2.30;;
81191;SDS011;70665;47.652;-2.730;2024-03-23T02:19:14;8.45;;;1.90;;
81191;SDS011;70665;47.652;-2.730;2024-03-23T02:21:39;11.48;;;2.47;;
81191;SDS011;70665;47.652;-2.730;2024-03-23T02:24:05;12.45;;;2.60;;
81191;SDS011;70665;47.652;-2.730;2024-03-23T02:26:31;12.15;;;2.13;;
81191;SDS011;70665;47.652;-2.730;2024-03-23T02:28:56;11.93;;;2.08;;
81191;SDS011;70665;47.652;-2.730;2024-03-23T02:31:22;15.57;;;3.05;;
81191;SDS011;70665;47.652;-2.730;2024-03-23T02:33:48;11.27;;;2.20;;
81191;SDS011;70665;47.652;-2.730;2024-03-23T02:36:13;12.85;;;2.50;;
81191;SDS011;70665;47.652;-2.730;2024-03-23T02:38:39;13.27;;;2.53;;
81191;SDS011;70665;47.652;-2.730;2024-03-23T02:41:05;14.23;;;3.00;;
81191;SDS011;70665;47.652;-2.730;2024-03-23T02:43:30;11.13;;;2.45;;
81191;SDS011;70665;47.652;-2.730;2024-03-23T02:45:56;10.70;;;2.15;;
81191;SDS011;70665;47.652;-2.730;2024-03-23T02:48:22;10.85;;;2.08;;
81191;SDS011;70665;47.652;-2.730;2024-03-23T02:50:48;10.13;;;1.98;;
81191;SDS011;70665;47.652;-2.730;2024-03-23T02:53:14;8.88;;;2.33;;
81191;SDS011;70665;47.652;-2.730;2024-03-23T02:55:39;13.15;;;2.30;;
81191;SDS011;70665;47.652;-2.730;2024-03-23T02:58:05;9.77;;;2.38;;
81191;SDS011;70665;47.652;-2.730;2024-03-23T03:00:31;12.80;;;2.15;;
81191;SDS011;70665;47.652;-2.730;2024-03-23T03:02:56;18.75;;;2.33;;
81191;SDS011;70665;47.652;-2.730;2024-03-23T03:05:22;8.50;;;1.98;;
81191;SDS011;70665;47.652;-2.730;2024-03-23T03:07:47;12.30;;;2.25;;
81191;SDS011;70665;47.652;-2.730;2024-03-23T03:10:13;10.38;;;1.92;;
81191;SDS011;70665;47.652;-2.730;2024-03-23T03:12:39;13.98;;;2.13;;
81191;SDS011;70665;47.652;-2.730;2024-03-23T03:15:05;12.07;;;1.98;;
81191;SDS011;70665;47.652;-2.730;2024-03-23T03:19:56;10.10;;;1.80;;
81191;SDS011;70665;47.652;-2.730;2024-03-23T03:22:22;10.52;;;2.25;;
81191;SDS011;70665;47.652;-2.730;2024-03-23T03:24:48;8.43;;;1.73;;
81191;SDS011;70665;47.652;-2.730;2024-03-23T03:27:14;13.60;;;2.33;;
81191;SDS011;70665;47.652;-2.730;2024-03-23T03:29:40;14.38;;;2.10;;
81191;SDS011;70665;47.652;-2.730;2024-03-23T03:32:05;7.75;;;2.33;;
81191;SDS011;70665;47.652;-2.730;2024-03-23T03:34:31;12.32;;;1.80;;
81191;SDS011;70665;47.652;-2.730;2024-03-23T03:36:57;12.45;;;1.83;;
81191;SDS011;70665;47.652;-2.730;2024-03-23T03:39:23;12.73;;;2.30;;
81191;SDS011;70665;47.652;-2.730;2024-03-23T03:41:49;13.32;;;2.38;;
81191;SDS011;70665;47.652;-2.730;2024-03-23T03:44:15;9.80;;;2.00;;
81191;SDS011;70665;47.652;-2.730;2024-03-23T03:46:41;12.18;;;2.30;;
81191;SDS011;70665;47.652;-2.730;2024-03-23T03:49:07;14.23;;;2.08;;
81191;SDS011;70665;47.652;-2.730;2024-03-23T03:51:33;7.43;;;2.88;;
81191;SDS011;70665;47.652;-2.730;2024-03-23T03:53:58;10.63;;;1.95;;
81191;SDS011;70665;47.652;-2.730;2024-03-23T03:56:24;14.73;;;2.60;;
81191;SDS011;70665;47.652;-2.730;2024-03-23T03:58:50;9.32;;;1.70;;
81191;SDS011;70665;47.652;-2.730;2024-03-23T04:01:15;8.88;;;2.35;;
81191;SDS011;70665;47.652;-2.730;2024-03-23T04:03:42;7.78;;;1.58;;
81191;SDS011;70665;47.652;-2.730;2024-03-23T04:06:09;12.10;;;1.63;;
81191;SDS011;70665;47.652;-2.730;2024-03-23T04:11:00;9.15;;;1.85;;
81191;SDS011;70665;47.652;-2.730;2024-03-23T04:13:26;11.02;;;2.78;;
81191;SDS011;70665;47.652;-2.730;2024-03-23T04:15:55;9.10;;;1.52;;
81191;SDS011;70665;47.652;-2.730;2024-03-23T04:18:21;15.00;;;2.10;;
81191;SDS011;70665;47.652;-2.730;2024-03-23T04:20:48;9.75;;;2.28;;
81191;SDS011;70665;47.652;-2.730;2024-03-23T04:23:14;8.27;;;2.30;;
81191;SDS011;70665;47.652;-2.730;2024-03-23T04:25:39;7.32;;;2.08;;
81191;SDS011;70665;47.652;-2.730;2024-03-23T04:28:05;8.90;;;1.63;;
81191;SDS011;70665;47.652;-2.730;2024-03-23T04:32:57;8.43;;;1.50;;
81191;SDS011;70665;47.652;-2.730;2024-03-23T04:35:23;10.57;;;2.83;;
81191;SDS011;70665;47.652;-2.730;2024-03-23T04:37:55;9.48;;;1.92;;
81191;SDS011;70665;47.652;-2.730;2024-03-23T04:40:21;12.60;;;2.65;;
81191;SDS011;70665;47.652;-2.730;2024-03-23T04:42:46;7.82;;;2.30;;
81191;SDS011;70665;47.652;-2.730;2024-03-23T04:45:12;15.90;;;4.07;;
81191;SDS011;70665;47.652;-2.730;2024-03-23T04:47:38;8.25;;;2.35;;
81191;SDS011;70665;47.652;-2.730;2024-03-23T04:50:04;10.02;;;2.00;;
81191;SDS011;70665;47.652;-2.730;2024-03-23T04:52:30;12.35;;;2.72;;
81191;SDS011;70665;47.652;-2.730;2024-03-23T04:54:56;8.38;;;1.95;;
81191;SDS011;70665;47.652;-2.730;2024-03-23T04:57:21;8.05;;;1.65;;
81191;SDS011;70665;47.652;-2.730;2024-03-23T04:59:47;8.68;;;1.80;;
81191;SDS011;70665;47.652;-2.730;2024-03-23T05:02:13;9.07;;;1.80;;
81191;SDS011;70665;47.652;-2.730;2024-03-23T05:04:40;10.40;;;2.10;;
81191;SDS011;70665;47.652;-2.730;2024-03-23T05:07:05;9.23;;;2.15;;
81191;SDS011;70665;47.652;-2.730;2024-03-23T05:09:31;7.88;;;1.83;;
81191;SDS011;70665;47.652;-2.730;2024-03-23T05:11:58;7.47;;;2.25;;
81191;SDS011;70665;47.652;-2.730;2024-03-23T05:14:25;5.38;;;1.95;;
81191;SDS011;70665;47.652;-2.730;2024-03-23T05:19:17;5.95;;;1.77;;
81191;SDS011;70665;47.652;-2.730;2024-03-23T05:21:42;10.15;;;2.13;;
81191;SDS011;70665;47.652;-2.730;2024-03-23T05:24:08;10.57;;;2.75;;
81191;SDS011;70665;47.652;-2.730;2024-03-23T05:26:34;10.60;;;2.35;;
81191;SDS011;70665;47.652;-2.730;2024-03-23T05:29:00;7.97;;;2.15;;
81191;SDS011;70665;47.652;-2.730;2024-03-23T05:31:27;5.45;;;1.92;;
81191;SDS011;70665;47.652;-2.730;2024-03-23T05:33:54;9.02;;;2.22;;
81191;SDS011;70665;47.652;-2.730;2024-03-23T05:36:19;11.35;;;2.05;;
81191;SDS011;70665;47.652;-2.730;2024-03-23T05:38:45;9.27;;;2.00;;
81191;SDS011;70665;47.652;-2.730;2024-03-23T05:41:11;6.57;;;1.77;;
81191;SDS011;70665;47.652;-2.730;2024-03-23T05:43:37;12.60;;;1.88;;
81191;SDS011;70665;47.652;-2.730;2024-03-23T05:46:03;8.82;;;2.25;;
81191;SDS011;70665;47.652;-2.730;2024-03-23T05:48:32;7.00;;;2.10;;
81191;SDS011;70665;47.652;-2.730;2024-03-23T05:50:58;11.45;;;2.72;;
81191;SDS011;70665;47.652;-2.730;2024-03-23T05:53:24;6.05;;;1.80;;
81191;SDS011;70665;47.652;-2.730;2024-03-23T05:55:50;8.35;;;2.67;;
81191;SDS011;70665;47.652;-2.730;2024-03-23T05:58:18;7.97;;;2.65;;
81191;SDS011;70665;47.652;-2.730;2024-03-23T06:00:45;9.45;;;2.42;;
81191;SDS011;70665;47.652;-2.730;2024-03-23T06:03:11;11.77;;;2.33;;
81191;SDS011;70665;47.652;-2.730;2024-03-23T06:05:37;9.23;;;2.20;;
81191;SDS011;70665;47.652;-2.730;2024-03-23T06:08:03;7.28;;;2.33;;
81191;SDS011;70665;47.652;-2.730;2024-03-23T06:10:29;8.35;;;2.13;;
81191;SDS011;70665;47.652;-2.730;2024-03-23T06:12:55;10.50;;;2.20;;
81191;SDS011;70665;47.652;-2.730;2024-03-23T06:15:21;10.90;;;2.70;;
81191;SDS011;70665;47.652;-2.730;2024-03-23T06:17:47;11.93;;;2.90;;
81191;SDS011;70665;47.652;-2.730;2024-03-23T06:20:13;12.77;;;3.35;;
81191;SDS011;70665;47.652;-2.730;2024-03-23T06:22:39;11.13;;;2.92;;
81191;SDS011;70665;47.652;-2.730;2024-03-23T06:25:05;9.98;;;2.03;;
81191;SDS011;70665;47.652;-2.730;2024-03-23T06:27:31;6.38;;;2.03;;
81191;SDS011;70665;47.652;-2.730;2024-03-23T06:30:00;6.10;;;1.70;;
81191;SDS011;70665;47.652;-2.730;2024-03-23T06:32:27;7.93;;;1.90;;
81191;SDS011;70665;47.652;-2.730;2024-03-23T06:34:54;9.85;;;1.75;;
81191;SDS011;70665;47.652;-2.730;2024-03-23T06:37:20;7.95;;;1.42;;
81191;SDS011;70665;47.652;-2.730;2024-03-23T06:39:46;5.38;;;1.50;;
81191;SDS011;70665;47.652;-2.730;2024-03-23T06:42:12;9.35;;;1.73;;
81191;SDS011;70665;47.652;-2.730;2024-03-23T06:44:38;9.23;;;1.73;;
81191;SDS011;70665;47.652;-2.730;2024-03-23T06:47:04;9.73;;;1.70;;
81191;SDS011;70665;47.652;-2.730;2024-03-23T06:49:30;12.35;;;1.92;;
81191;SDS011;70665;47.652;-2.730;2024-03-23T06:51:56;10.70;;;2.08;;
81191;SDS011;70665;47.652;-2.730;2024-03-23T06:54:21;10.45;;;2.22;;
81191;SDS011;70665;47.652;-2.730;2024-03-23T06:56:47;8.63;;;1.92;;
81191;SDS011;70665;47.652;-2.730;2024-03-23T06:59:12;10.48;;;1.88;;
81191;SDS011;70665;47.652;-2.730;2024-03-23T07:01:38;8.88;;;1.90;;
81191;SDS011;70665;47.652;-2.730;2024-03-23T07:04:04;10.43;;;2.28;;
81191;SDS011;70665;47.652;-2.730;2024-03-23T07:06:30;12.75;;;1.75;;
81191;SDS011;70665;47.652;-2.730;2024-03-23T07:08:56;6.38;;;1.55;;
81191;SDS011;70665;47.652;-2.730;2024-03-23T07:11:22;7.95;;;1.70;;
81191;SDS011;70665;47.652;-2.730;2024-03-23T07:13:55;9.75;;;1.63;;
81191;SDS011;70665;47.652;-2.730;2024-03-23T07:16:20;10.10;;;2.33;;
81191;SDS011;70665;47.652;-2.730;2024-03-23T07:18:46;9.30;;;1.77;;
81191;SDS011;70665;47.652;-2.730;2024-03-23T07:21:12;6.85;;;1.42;;
81191;SDS011;70665;47.652;-2.730;2024-03-23T07:23:41;9.88;;;2.28;;
81191;SDS011;70665;47.652;-2.730;2024-03-23T07:26:10;8.68;;;1.58;;
81191;SDS011;70665;47.652;-2.730;2024-03-23T07:28:36;11.23;;;2.10;;
81191;SDS011;70665;47.652;-2.730;2024-03-23T07:33:27;11.25;;;1.85;;
81191;SDS011;70665;47.652;-2.730;2024-03-23T07:35:53;11.15;;;1.60;;
81191;SDS011;70665;47.652;-2.730;2024-03-23T07:38:19;6.55;;;1.42;;
81191;SDS011;70665;47.652;-2.730;2024-03-23T07:40:44;16.25;;;1.95;;
81191;SDS011;70665;47.652;-2.730;2024-03-23T07:43:10;10.20;;;2.13;;
81191;SDS011;70665;47.652;-2.730;2024-03-23T07:45:36;7.10;;;2.03;;
81191;SDS011;70665;47.652;-2.730;2024-03-23T07:48:03;12.75;;;1.90;;
81191;SDS011;70665;47.652;-2.730;2024-03-23T07:52:55;8.85;;;1.67;;
81191;SDS011;70665;47.652;-2.730;2024-03-23T07:55:20;6.88;;;1.30;;
81191;SDS011;70665;47.652;-2.730;2024-03-23T07:57:46;7.93;;;1.55;;
81191;SDS011;70665;47.652;-2.730;2024-03-23T08:00:12;11.93;;;1.63;;
81191;SDS011;70665;47.652;-2.730;2024-03-23T08:05:04;11.25;;;2.22;;
81191;SDS011;70665;47.652;-2.730;2024-03-23T08:07:30;9.82;;;1.88;;
81191;SDS011;70665;47.652;-2.730;2024-03-23T08:09:55;6.30;;;1.80;;
81191;SDS011;70665;47.652;-2.730;2024-03-23T08:12:21;7.65;;;1.70;;
81191;SDS011;70665;47.652;-2.730;2024-03-23T08:14:46;6.40;;;1.52;;
81191;SDS011;70665;47.652;-2.730;2024-03-23T08:17:12;12.85;;;3.00;;
81191;SDS011;70665;47.652;-2.730;2024-03-23T08:19:37;13.25;;;2.65;;
81191;SDS011;70665;47.652;-2.730;2024-03-23T08:22:03;12.82;;;2.05;;
81191;SDS011;70665;47.652;-2.730;2024-03-23T08:24:29;8.25;;;1.42;;
81191;SDS011;70665;47.652;-2.730;2024-03-23T08:29:20;11.60;;;1.95;;
81191;SDS011;70665;47.652;-2.730;2024-03-23T08:31:46;14.23;;;1.88;;
81191;SDS011;70665;47.652;-2.730;2024-03-23T08:34:12;16.55;;;2.30;;
81191;SDS011;70665;47.652;-2.730;2024-03-23T08:36:37;6.25;;;1.50;;
81191;SDS011;70665;47.652;-2.730;2024-03-23T08:39:03;12.13;;;1.77;;
81191;SDS011;70665;47.652;-2.730;2024-03-23T08:41:28;13.45;;;1.77;;
81191;SDS011;70665;47.652;-2.730;2024-03-23T08:43:54;14.35;;;2.08;;
81191;SDS011;70665;47.652;-2.730;2024-03-23T08:46:20;7.65;;;1.65;;
81191;SDS011;70665;47.652;-2.730;2024-03-23T08:48:46;8.35;;;1.60;;
81191;SDS011;70665;47.652;-2.730;2024-03-23T08:51:14;15.43;;;1.95;;
81191;SDS011;70665;47.652;-2.730;2024-03-23T08:53:41;12.18;;;1.85;;
81191;SDS011;70665;47.652;-2.730;2024-03-23T08:56:08;9.23;;;2.03;;
81191;SDS011;70665;47.652;-2.730;2024-03-23T08:58:35;6.72;;;1.85;;
81191;SDS011;70665;47.652;-2.730;2024-03-23T09:01:06;10.00;;;1.90;;
81191;SDS011;70665;47.652;-2.730;2024-03-23T09:03:33;16.50;;;1.83;;
81191;SDS011;70665;47.652;-2.730;2024-03-23T09:05:59;9.60;;;1.35;;
81191;SDS011;70665;47.652;-2.730;2024-03-23T09:08:25;12.77;;;3.13;;
81191;SDS011;70665;47.652;-2.730;2024-03-23T09:10:51;6.65;;;1.50;;
81191;SDS011;70665;47.652;-2.730;2024-03-23T09:15:47;11.38;;;1.85;;
81191;SDS011;70665;47.652;-2.730;2024-03-23T09:18:14;6.90;;;1.58;;
81191;SDS011;70665;47.652;-2.730;2024-03-23T09:20:40;14.95;;;3.20;;
81191;SDS011;70665;47.652;-2.730;2024-03-23T09:23:06;14.00;;;2.25;;
81191;SDS011;70665;47.652;-2.730;2024-03-23T09:25:31;8.75;;;1.67;;
81191;SDS011;70665;47.652;-2.730;2024-03-23T09:27:57;12.00;;;1.63;;
81191;SDS011;70665;47.652;-2.730;2024-03-23T09:30:23;11.00;;;2.10;;
81191;SDS011;70665;47.652;-2.730;2024-03-23T09:32:49;9.70;;;1.45;;
81191;SDS011;70665;47.652;-2.730;2024-03-23T09:35:14;9.40;;;1.60;;
81191;SDS011;70665;47.652;-2.730;2024-03-23T09:37:40;12.75;;;1.98;;
81191;SDS011;70665;47.652;-2.730;2024-03-23T09:40:12;16.45;;;1.85;;
81191;SDS011;70665;47.652;-2.730;2024-03-23T09:42:38;7.68;;;1.20;;
81191;SDS011;70665;47.652;-2.730;2024-03-23T09:45:07;8.27;;;1.95;;
81191;SDS011;70665;47.652;-2.730;2024-03-23T09:47:42;10.90;;;2.03;;
81191;SDS011;70665;47.652;-2.730;2024-03-23T09:50:08;13.95;;;1.80;;
81191;SDS011;70665;47.652;-2.730;2024-03-23T09:52:34;13.85;;;2.58;;
81191;SDS011;70665;47.652;-2.730;2024-03-23T09:55:00;9.57;;;1.70;;
81191;SDS011;70665;47.652;-2.730;2024-03-23T09:57:26;8.30;;;1.60;;
81191;SDS011;70665;47.652;-2.730;2024-03-23T09:59:51;10.20;;;1.80;;
81191;SDS011;70665;47.652;-2.730;2024-03-23T10:02:18;8.30;;;1.73;;
81191;SDS011;70665;47.652;-2.730;2024-03-23T10:04:45;9.88;;;1.50;;
81191;SDS011;70665;47.652;-2.730;2024-03-23T10:07:12;7.25;;;1.30;;
81191;SDS011;70665;47.652;-2.730;2024-03-23T10:09:43;7.53;;;1.42;;
81191;SDS011;70665;47.652;-2.730;2024-03-23T10:12:12;8.20;;;1.58;;
81191;SDS011;70665;47.652;-2.730;2024-03-23T10:14:39;7.28;;;1.17;;
81191;SDS011;70665;47.652;-2.730;2024-03-23T10:17:15;6.30;;;1.10;;
81191;SDS011;70665;47.652;-2.730;2024-03-23T10:19:45;6.20;;;1.75;;
81191;SDS011;70665;47.652;-2.730;2024-03-23T10:22:19;9.20;;;1.48;;
81191;SDS011;70665;47.652;-2.730;2024-03-23T10:24:46;4.18;;;1.58;;
81191;SDS011;70665;47.652;-2.730;2024-03-23T10:27:19;5.50;;;1.48;;
81191;SDS011;70665;47.652;-2.730;2024-03-23T10:29:49;8.23;;;2.38;;
81191;SDS011;70665;47.652;-2.730;2024-03-23T10:32:17;3.05;;;1.20;;
81191;SDS011;70665;47.652;-2.730;2024-03-23T10:34:43;5.30;;;1.92;;
81191;SDS011;70665;47.652;-2.730;2024-03-23T10:37:09;5.20;;;1.33;;
81191;SDS011;70665;47.652;-2.730;2024-03-23T10:39:39;6.53;;;1.33;;
81191;SDS011;70665;47.652;-2.730;2024-03-23T10:42:06;9.30;;;1.20;;
81191;SDS011;70665;47.652;-2.730;2024-03-23T10:44:33;9.57;;;1.20;;
81191;SDS011;70665;47.652;-2.730;2024-03-23T10:47:00;5.88;;;1.25;;
81191;SDS011;70665;47.652;-2.730;2024-03-23T10:49:27;4.50;;;1.40;;
81191;SDS011;70665;47.652;-2.730;2024-03-23T10:51:55;5.68;;;1.20;;
81191;SDS011;70665;47.652;-2.730;2024-03-23T10:54:24;6.22;;;1.25;;
81191;SDS011;70665;47.652;-2.730;2024-03-23T10:56:57;8.50;;;1.42;;
81191;SDS011;70665;47.652;-2.730;2024-03-23T10:59:29;5.45;;;1.30;;
81191;SDS011;70665;47.652;-2.730;2024-03-23T11:01:56;4.72;;;1.08;;
81191;SDS011;70665;47.652;-2.730;2024-03-23T11:04:33;5.90;;;1.20;;
81191;SDS011;70665;47.652;-2.730;2024-03-23T11:07:00;7.80;;;1.98;;
81191;SDS011;70665;47.652;-2.730;2024-03-23T11:09:39;6.90;;;1.15;;
81191;SDS011;70665;47.652;-2.730;2024-03-23T11:12:48;9.77;;;1.58;;
81191;SDS011;70665;47.652;-2.730;2024-03-23T11:15:05;6.63;;;1.77;;
81191;SDS011;70665;47.652;-2.730;2024-03-23T11:17:36;5.70;;;1.13;;
81191;SDS011;70665;47.652;-2.730;2024-03-23T11:25:11;8.20;;;1.20;;
81191;SDS011;70665;47.652;-2.730;2024-03-23T11:27:41;7.38;;;2.17;;
81191;SDS011;70665;47.652;-2.730;2024-03-23T11:30:18;8.90;;;1.83;;
81191;SDS011;70665;47.652;-2.730;2024-03-23T11:32:54;9.68;;;1.40;;
81191;SDS011;70665;47.652;-2.730;2024-03-23T11:35:30;6.95;;;1.92;;
81191;SDS011;70665;47.652;-2.730;2024-03-23T11:38:15;6.05;;;1.52;;
81191;SDS011;70665;47.652;-2.730;2024-03-23T11:40:46;8.48;;;1.75;;
81191;SDS011;70665;47.652;-2.730;2024-03-23T11:43:13;4.22;;;1.45;;
81191;SDS011;70665;47.652;-2.730;2024-03-23T11:50:46;8.18;;;1.92;;
81191;SDS011;70665;47.652;-2.730;2024-03-23T11:55:54;8.18;;;2.22;;
81191;SDS011;70665;47.652;-2.730;2024-03-23T11:58:25;5.95;;;1.48;;
81191;SDS011;70665;47.652;-2.730;2024-03-23T12:00:58;4.40;;;1.23;;
81191;SDS011;70665;47.652;-2.730;2024-03-23T12:03:25;9.45;;;1.50;;
81191;SDS011;70665;47.652;-2.730;2024-03-23T12:05:54;5.93;;;1.35;;
81191;SDS011;70665;47.652;-2.730;2024-03-23T12:11:08;9.90;;;1.10;;
81191;SDS011;70665;47.652;-2.730;2024-03-23T12:13:39;5.50;;;1.13;;
81191;SDS011;70665;47.652;-2.730;2024-03-23T12:18:40;4.35;;;0.98;;
81191;SDS011;70665;47.652;-2.730;2024-03-23T12:21:07;4.90;;;1.02;;
81191;SDS011;70665;47.652;-2.730;2024-03-23T12:23:33;5.15;;;0.95;;
81191;SDS011;70665;47.652;-2.730;2024-03-23T12:28:25;5.40;;;1.42;;
81191;SDS011;70665;47.652;-2.730;2024-03-23T12:30:51;8.05;;;1.42;;
81191;SDS011;70665;47.652;-2.730;2024-03-23T12:33:18;6.35;;;1.15;;
81191;SDS011;70665;47.652;-2.730;2024-03-23T12:38:09;13.00;;;1.52;;
81191;SDS011;70665;47.652;-2.730;2024-03-23T12:40:34;5.13;;;1.17;;
81191;SDS011;70665;47.652;-2.730;2024-03-23T12:43:00;5.28;;;1.48;;
81191;SDS011;70665;47.652;-2.730;2024-03-23T12:45:26;7.25;;;1.55;;
81191;SDS011;70665;47.652;-2.730;2024-03-23T12:47:52;8.70;;;1.17;;
81191;SDS011;70665;47.652;-2.730;2024-03-23T12:50:18;10.18;;;1.83;;
81191;SDS011;70665;47.652;-2.730;2024-03-23T12:52:45;9.90;;;1.40;;
81191;SDS011;70665;47.652;-2.730;2024-03-23T12:55:10;8.20;;;1.70;;
81191;SDS011;70665;47.652;-2.730;2024-03-23T12:57:36;10.40;;;1.70;;
81191;SDS011;70665;47.652;-2.730;2024-03-23T13:00:02;9.68;;;1.55;;
81191;SDS011;70665;47.652;-2.730;2024-03-23T13:02:29;8.45;;;1.30;;
81191;SDS011;70665;47.652;-2.730;2024-03-23T13:04:55;4.40;;;1.33;;
81191;SDS011;70665;47.652;-2.730;2024-03-23T13:09:47;2.85;;;0.85;;
81191;SDS011;70665;47.652;-2.730;2024-03-23T13:12:16;5.00;;;1.33;;
81191;SDS011;70665;47.652;-2.730;2024-03-23T13:14:43;4.55;;;1.52;;
81191;SDS011;70665;47.652;-2.730;2024-03-23T13:17:09;6.15;;;1.40;;
81191;SDS011;70665;47.652;-2.730;2024-03-23T13:19:35;6.93;;;1.58;;
81191;SDS011;70665;47.652;-2.730;2024-03-23T13:24:28;6.38;;;1.33;;
81191;SDS011;70665;47.652;-2.730;2024-03-23T13:26:54;2.92;;;0.70;;
81191;SDS011;70665;47.652;-2.730;2024-03-23T13:29:20;5.25;;;0.85;;
81191;SDS011;70665;47.652;-2.730;2024-03-23T13:31:47;7.35;;;0.85;;
81191;SDS011;70665;47.652;-2.730;2024-03-23T13:34:13;2.22;;;0.70;;
81191;SDS011;70665;47.652;-2.730;2024-03-23T13:36:43;4.93;;;1.17;;
81191;SDS011;70665;47.652;-2.730;2024-03-23T13:41:39;5.20;;;1.08;;
81191;SDS011;70665;47.652;-2.730;2024-03-23T13:44:09;4.15;;;0.93;;
81191;SDS011;70665;47.652;-2.730;2024-03-23T13:46:36;4.72;;;1.15;;
81191;SDS011;70665;47.652;-2.730;2024-03-23T13:49:02;4.43;;;1.10;;
81191;SDS011;70665;47.652;-2.730;2024-03-23T13:51:28;11.60;;;2.33;;
81191;SDS011;70665;47.652;-2.730;2024-03-23T13:56:20;6.10;;;1.35;;
81191;SDS011;70665;47.652;-2.730;2024-03-23T14:01:12;8.48;;;1.50;;
81191;SDS011;70665;47.652;-2.730;2024-03-23T14:03:38;9.52;;;1.95;;
81191;SDS011;70665;47.652;-2.730;2024-03-23T14:06:04;4.38;;;1.10;;
81191;SDS011;70665;47.652;-2.730;2024-03-23T14:08:31;6.13;;;1.45;;
81191;SDS011;70665;47.652;-2.730;2024-03-23T14:10:58;7.35;;;1.30;;
81191;SDS011;70665;47.652;-2.730;2024-03-23T14:15:52;6.72;;;1.38;;
81191;SDS011;70665;47.652;-2.730;2024-03-23T14:18:18;9.70;;;1.45;;
81191;SDS011;70665;47.652;-2.730;2024-03-23T14:20:44;7.93;;;2.08;;
81191;SDS011;70665;47.652;-2.730;2024-03-23T14:25:35;5.32;;;1.50;;
81191;SDS011;70665;47.652;-2.730;2024-03-23T14:30:26;6.35;;;1.30;;
81191;SDS011;70665;47.652;-2.730;2024-03-23T14:32:52;8.00;;;1.10;;
81191;SDS011;70665;47.652;-2.730;2024-03-23T14:35:18;5.38;;;1.45;;
81191;SDS011;70665;47.652;-2.730;2024-03-23T14:40:09;2.97;;;1.38;;
81191;SDS011;70665;47.652;-2.730;2024-03-23T14:42:37;3.50;;;1.17;;
81191;SDS011;70665;47.652;-2.730;2024-03-23T14:47:30;6.45;;;1.00;;
81191;SDS011;70665;47.652;-2.730;2024-03-23T14:49:56;6.50;;;1.35;;
81191;SDS011;70665;47.652;-2.730;2024-03-23T14:52:23;4.47;;;1.45;;
81191;SDS011;70665;47.652;-2.730;2024-03-23T14:57:14;7.90;;;1.30;;
81191;SDS011;70665;47.652;-2.730;2024-03-23T14:59:40;2.88;;;1.05;;
81191;SDS011;70665;47.652;-2.730;2024-03-23T15:04:32;7.05;;;1.23;;
81191;SDS011;70665;47.652;-2.730;2024-03-23T15:06:57;8.48;;;1.33;;
81191;SDS011;70665;47.652;-2.730;2024-03-23T15:11:49;4.78;;;1.08;;
81191;SDS011;70665;47.652;-2.730;2024-03-23T15:14:14;5.20;;;1.30;;
81191;SDS011;70665;47.652;-2.730;2024-03-23T15:16:40;4.45;;;1.00;;
81191;SDS011;70665;47.652;-2.730;2024-03-23T15:19:07;6.63;;;1.17;;
81191;SDS011;70665;47.652;-2.730;2024-03-23T15:23:58;6.28;;;1.40;;
81191;SDS011;70665;47.652;-2.730;2024-03-23T15:28:50;4.00;;;1.00;;
81191;SDS011;70665;47.652;-2.730;2024-03-23T15:31:21;4.35;;;1.20;;
81191;SDS011;70665;47.652;-2.730;2024-03-23T15:36:12;8.05;;;1.35;;
81191;SDS011;70665;47.652;-2.730;2024-03-23T15:38:38;8.75;;;1.38;;
81191;SDS011;70665;47.652;-2.730;2024-03-23T15:41:03;4.45;;;1.10;;
81191;SDS011;70665;47.652;-2.730;2024-03-23T15:43:29;3.58;;;1.10;;
81191;SDS011;70665;47.652;-2.730;2024-03-23T15:45:56;8.15;;;1.45;;
81191;SDS011;70665;47.652;-2.730;2024-03-23T15:48:24;3.15;;;1.02;;
81191;SDS011;70665;47.652;-2.730;2024-03-23T15:50:53;1.88;;;0.90;;
81191;SDS011;70665;47.652;-2.730;2024-03-23T15:53:21;4.22;;;0.77;;
81191;SDS011;70665;47.652;-2.730;2024-03-23T15:55:57;4.03;;;1.00;;
81191;SDS011;70665;47.652;-2.730;2024-03-23T15:58:27;4.47;;;1.02;;
81191;SDS011;70665;47.652;-2.730;2024-03-23T16:00:56;6.07;;;1.00;;
81191;SDS011;70665;47.652;-2.730;2024-03-23T16:03:22;3.95;;;1.15;;
81191;SDS011;70665;47.652;-2.730;2024-03-23T16:05:55;4.97;;;1.13;;
81191;SDS011;70665;47.652;-2.730;2024-03-23T16:08:22;4.45;;;1.02;;
81191;SDS011;70665;47.652;-2.730;2024-03-23T16:10:48;3.92;;;1.00;;
81191;SDS011;70665;47.652;-2.730;2024-03-23T16:13:14;2.55;;;0.88;;
81191;SDS011;70665;47.652;-2.730;2024-03-23T16:18:06;4.35;;;1.52;;
81191;SDS011;70665;47.652;-2.730;2024-03-23T16:20:32;4.05;;;1.15;;
81191;SDS011;70665;47.652;-2.730;2024-03-23T16:22:59;4.28;;;1.20;;
81191;SDS011;70665;47.652;-2.730;2024-03-23T16:25:24;3.83;;;1.13;;
81191;SDS011;70665;47.652;-2.730;2024-03-23T16:27:50;4.60;;;1.15;;
81191;SDS011;70665;47.652;-2.730;2024-03-23T16:30:16;5.82;;;1.10;;
81191;SDS011;70665;47.652;-2.730;2024-03-23T16:32:42;5.30;;;1.50;;
81191;SDS011;70665;47.652;-2.730;2024-03-23T16:35:07;3.85;;;1.15;;
81191;SDS011;70665;47.652;-2.730;2024-03-23T16:37:36;5.68;;;1.33;;
81191;SDS011;70665;47.652;-2.730;2024-03-23T16:40:02;4.68;;;1.15;;
81191;SDS011;70665;47.652;-2.730;2024-03-23T16:42:28;3.85;;;1.00;;
81191;SDS011;70665;47.652;-2.730;2024-03-23T16:44:55;4.65;;;1.20;;
81191;SDS011;70665;47.652;-2.730;2024-03-23T16:49:46;4.20;;;1.08;;
81191;SDS011;70665;47.652;-2.730;2024-03-23T16:52:11;3.50;;;1.10;;